createdAt,value
2023-06-07T00:01:51.645Z,3.15
2023-06-07T00:04:21.107Z,2.80
2023-06-07T00:06:50.563Z,2.90
2023-06-07T00:09:19.972Z,2.88
2023-06-07T00:11:49.402Z,2.95
2023-06-07T00:14:21.345Z,3.30
2023-06-07T00:16:51.581Z,3.13
2023-06-07T00:19:22.410Z,2.92
2023-06-07T00:21:52.846Z,2.78
2023-06-07T00:24:22.277Z,2.83
2023-06-07T00:26:51.774Z,3.20
2023-06-07T00:29:23.709Z,3.13
2023-06-07T00:31:53.108Z,2.90
2023-06-07T00:34:22.513Z,3.13
2023-06-07T00:36:51.868Z,3.53
2023-06-07T00:39:21.441Z,2.97
2023-06-07T00:41:50.825Z,3.15
2023-06-07T00:44:20.442Z,2.90
2023-06-07T00:46:52.872Z,3.20
2023-06-07T00:49:22.326Z,3.10
2023-06-07T00:51:51.830Z,3.30
2023-06-07T00:54:21.229Z,3.10
2023-06-07T00:56:51.711Z,3.28
2023-06-07T00:59:21.472Z,3.17
2023-06-07T01:01:54.541Z,3.00
2023-06-07T01:04:25.419Z,3.00
2023-06-07T01:06:55.688Z,3.30
2023-06-07T01:09:25.017Z,3.10
2023-06-07T01:11:54.700Z,3.47
2023-06-07T01:14:24.090Z,3.10
2023-06-07T01:16:58.412Z,3.25
2023-06-07T01:19:29.023Z,3.00
2023-06-07T01:22:00.258Z,2.95
2023-06-07T01:24:32.631Z,3.10
2023-06-07T01:27:03.414Z,3.10
2023-06-07T01:29:32.728Z,2.90
2023-06-07T01:32:02.986Z,2.92
2023-06-07T01:34:32.396Z,3.13
2023-06-07T01:37:01.802Z,2.90
2023-06-07T01:39:33.961Z,3.28
2023-06-07T01:42:03.329Z,3.22
2023-06-07T01:44:32.652Z,2.97
2023-06-07T01:47:02.017Z,3.10
2023-06-07T01:49:31.355Z,3.42
2023-06-07T01:52:00.741Z,3.30
2023-06-07T01:54:30.098Z,3.03
2023-06-07T01:57:04.777Z,3.20
2023-06-07T01:59:36.944Z,3.10
2023-06-07T02:02:08.036Z,3.20
2023-06-07T02:04:37.432Z,3.17
2023-06-07T02:07:09.811Z,3.03
2023-06-07T02:09:39.634Z,3.22
2023-06-07T02:12:11.922Z,3.30
2023-06-07T02:14:43.349Z,3.20
2023-06-07T02:17:12.792Z,3.28
2023-06-07T02:19:42.166Z,3.10
2023-06-07T02:22:11.505Z,3.20
2023-06-07T02:24:42.352Z,3.10
2023-06-07T02:27:14.264Z,3.08
2023-06-07T02:29:43.555Z,3.20
2023-06-07T02:32:12.932Z,3.30
2023-06-07T02:34:42.266Z,3.33
2023-06-07T02:37:11.618Z,3.08
2023-06-07T02:39:41.037Z,3.50
2023-06-07T02:42:11.018Z,3.40
2023-06-07T02:44:42.909Z,3.13
2023-06-07T02:47:12.533Z,3.20
2023-06-07T02:49:42.332Z,3.20
2023-06-07T02:52:12.816Z,3.28
2023-06-07T02:54:42.170Z,3.45
2023-06-07T02:57:11.606Z,3.17
2023-06-07T02:59:43.511Z,3.40
2023-06-07T03:02:13.016Z,3.10
2023-06-07T03:04:45.022Z,3.53
2023-06-07T03:07:14.368Z,3.17
2023-06-07T03:09:44.744Z,3.08
2023-06-07T03:12:14.243Z,3.05
2023-06-07T03:14:46.163Z,3.08
2023-06-07T03:17:16.111Z,3.35
2023-06-07T03:19:45.466Z,3.00
2023-06-07T03:22:14.817Z,3.10
2023-06-07T03:24:44.559Z,2.90
2023-06-07T03:27:14.362Z,3.20
2023-06-07T03:29:46.286Z,3.10
2023-06-07T03:32:15.641Z,3.38
2023-06-07T03:34:45.616Z,3.28
2023-06-07T03:37:15.184Z,3.30
2023-06-07T03:39:44.513Z,3.28
2023-06-07T03:42:13.826Z,3.30
2023-06-07T03:44:43.167Z,3.30
2023-06-07T03:47:15.120Z,3.60
2023-06-07T03:49:44.458Z,3.30
2023-06-07T03:52:13.771Z,3.15
2023-06-07T03:54:43.230Z,3.28
2023-06-07T03:57:12.588Z,3.35
2023-06-07T03:59:41.905Z,3.40
2023-06-07T04:02:11.216Z,3.13
2023-06-07T04:04:43.757Z,3.03
2023-06-07T04:07:13.362Z,3.05
2023-06-07T04:09:43.893Z,3.10
2023-06-07T04:12:14.111Z,3.30
2023-06-07T04:14:43.493Z,3.25
2023-06-07T04:17:13.023Z,3.38
2023-06-07T04:20:06.607Z,3.65
2023-06-07T04:22:36.782Z,3.25
2023-06-07T04:25:07.145Z,3.22
2023-06-07T04:27:39.338Z,3.25
2023-06-07T04:30:10.657Z,3.38
2023-06-07T04:32:40.706Z,3.47
2023-06-07T04:35:15.983Z,3.37
2023-06-07T04:37:46.682Z,3.30
2023-06-07T04:40:16.681Z,3.17
2023-06-07T04:42:47.884Z,3.30
2023-06-07T04:45:18.199Z,3.25
2023-06-07T04:47:47.819Z,3.40
2023-06-07T04:50:22.217Z,3.47
2023-06-07T04:52:51.872Z,3.30
2023-06-07T04:55:23.392Z,3.80
2023-06-07T04:57:55.583Z,3.60
2023-06-07T05:00:26.193Z,3.70
2023-06-07T05:02:55.802Z,3.70
2023-06-07T05:05:27.770Z,3.60
2023-06-07T05:07:57.102Z,3.90
2023-06-07T05:10:26.567Z,3.90
2023-06-07T05:12:56.320Z,4.47
2023-06-07T05:15:25.928Z,3.70
2023-06-07T05:17:55.403Z,4.00
2023-06-07T05:20:29.237Z,3.80
2023-06-07T05:22:58.569Z,3.75
2023-06-07T05:25:27.912Z,3.92
2023-06-07T05:28:11.648Z,3.40
2023-06-07T05:30:42.823Z,3.30
2023-06-07T05:33:12.320Z,3.47
2023-06-07T05:35:47.461Z,3.55
2023-06-07T05:38:17.033Z,3.30
2023-06-07T05:40:46.431Z,3.40
2023-06-07T05:43:15.892Z,3.40
2023-06-07T05:45:45.280Z,3.30
2023-06-07T05:48:14.698Z,3.70
2023-06-07T05:50:46.649Z,3.50
2023-06-07T05:53:16.875Z,3.60
2023-06-07T05:55:46.683Z,3.55
2023-06-07T05:58:16.165Z,3.25
2023-06-07T06:00:45.617Z,3.35
2023-06-07T06:03:18.027Z,3.40
2023-06-07T06:05:50.002Z,3.00
2023-06-07T06:08:19.388Z,3.50
2023-06-07T06:10:48.758Z,3.40
2023-06-07T06:13:18.183Z,3.40
2023-06-07T06:15:47.534Z,3.17
2023-06-07T06:18:16.967Z,3.40
2023-06-07T06:20:46.454Z,2.97
2023-06-07T06:23:18.448Z,3.20
2023-06-07T06:25:47.814Z,3.50
2023-06-07T06:28:17.301Z,3.70
2023-06-07T06:30:46.793Z,3.25
2023-06-07T06:33:16.491Z,3.50
2023-06-07T06:35:47.049Z,3.50
2023-06-07T06:38:19.122Z,3.30
2023-06-07T06:40:48.804Z,3.38
2023-06-07T06:43:18.178Z,3.25
2023-06-07T06:45:47.981Z,3.28
2023-06-07T06:48:17.377Z,3.15
2023-06-07T06:50:48.305Z,3.15
2023-06-07T06:55:49.487Z,3.20
2023-06-07T06:58:18.920Z,3.47
2023-06-07T07:00:48.479Z,3.20
2023-06-07T07:03:17.928Z,3.10
2023-06-07T07:05:47.336Z,3.30
2023-06-07T07:08:16.725Z,3.40
2023-06-07T07:10:47.823Z,3.28
2023-06-07T07:13:19.755Z,3.25
2023-06-07T07:15:49.099Z,3.67
2023-06-07T07:18:18.456Z,3.40
2023-06-07T07:20:47.788Z,3.30
2023-06-07T07:23:18.308Z,3.50
2023-06-07T07:25:47.650Z,3.47
2023-06-07T07:28:19.565Z,3.70
2023-06-07T07:30:48.907Z,3.35
2023-06-07T07:33:18.235Z,3.20
2023-06-07T07:35:47.544Z,3.72
2023-06-07T07:38:17.151Z,3.58
2023-06-07T07:40:48.658Z,3.40
2023-06-07T07:43:20.553Z,3.20
2023-06-07T07:45:49.928Z,3.40
2023-06-07T07:48:19.317Z,3.50
2023-06-07T07:50:48.653Z,3.65
2023-06-07T07:53:18.168Z,3.53
2023-06-07T07:55:47.489Z,3.53
2023-06-07T07:58:16.889Z,3.53
2023-06-07T08:00:48.814Z,3.50
2023-06-07T08:03:18.318Z,3.63
2023-06-07T08:05:47.766Z,3.58
2023-06-07T08:08:18.585Z,3.50
2023-06-07T08:10:48.809Z,3.25
2023-06-07T08:13:18.187Z,3.50
2023-06-07T08:15:50.248Z,3.83
2023-06-07T08:18:19.844Z,3.80
2023-06-07T08:20:49.151Z,3.65
2023-06-07T08:23:18.480Z,3.75
2023-06-07T08:25:47.820Z,3.80
2023-06-07T08:28:17.202Z,3.78
2023-06-07T08:30:46.679Z,4.05
2023-06-07T08:33:18.574Z,4.00
2023-06-07T08:35:47.971Z,3.90
2023-06-07T08:38:17.580Z,3.80
2023-06-07T08:40:46.945Z,3.72
2023-06-07T08:43:16.627Z,3.80
2023-06-07T08:45:46.166Z,4.10
2023-06-07T08:48:18.132Z,3.65
2023-06-07T08:50:48.582Z,3.78
2023-06-07T08:53:18.278Z,3.90
2023-06-07T08:55:47.649Z,3.88
2023-06-07T08:58:16.980Z,3.90
2023-06-07T09:00:46.306Z,3.80
2023-06-07T09:03:18.360Z,4.10
2023-06-07T09:05:47.834Z,4.07
2023-06-07T09:08:17.206Z,4.10
2023-06-07T09:10:46.675Z,4.18
2023-06-07T09:13:16.201Z,4.40
2023-06-07T09:15:45.544Z,3.92
2023-06-07T09:18:15.079Z,4.20
2023-06-07T09:20:47.106Z,10.07
2023-06-07T09:23:18.059Z,4.30
2023-06-07T09:25:48.660Z,4.05
2023-06-07T09:28:18.223Z,4.18
2023-06-07T09:30:57.390Z,4.30
2023-06-07T09:33:30.556Z,4.55
2023-06-07T09:36:09.354Z,4.32
2023-06-07T09:38:38.788Z,4.60
2023-06-07T09:41:08.429Z,4.40
2023-06-07T09:43:48.591Z,4.30
2023-06-07T09:46:18.159Z,4.35
2023-06-07T09:48:48.349Z,4.45
2023-06-07T09:51:20.853Z,4.45
2023-06-07T09:53:54.401Z,4.07
2023-06-07T09:56:24.102Z,4.50
2023-06-07T09:58:53.650Z,3.92
2023-06-07T10:01:43.490Z,3.88
2023-06-07T10:04:13.221Z,4.20
2023-06-07T10:06:47.051Z,4.00
2023-06-07T10:09:16.439Z,4.00
2023-06-07T10:11:47.922Z,4.03
2023-06-07T10:14:17.974Z,3.97
2023-06-07T10:16:48.856Z,4.10
2023-06-07T10:19:20.120Z,4.00
2023-06-07T10:21:53.435Z,3.92
2023-06-07T10:24:25.712Z,4.18
2023-06-07T10:26:57.006Z,3.97
2023-06-07T10:29:27.731Z,3.85
2023-06-07T10:34:26.631Z,4.40
2023-06-07T10:36:58.557Z,4.43
2023-06-07T10:39:27.951Z,4.00
2023-06-07T10:41:57.340Z,4.10
2023-06-07T10:44:27.266Z,3.95
2023-06-07T10:47:11.643Z,4.22
2023-06-07T10:49:41.175Z,4.20
2023-06-07T10:52:15.977Z,4.35
2023-06-07T10:54:45.581Z,4.15
2023-06-07T10:57:15.004Z,3.67
2023-06-07T10:59:44.344Z,4.20
2023-06-07T11:02:23.680Z,4.13
2023-06-07T11:04:57.068Z,4.20
2023-06-07T11:07:32.083Z,4.18
2023-06-07T11:10:25.725Z,4.15
2023-06-07T11:12:59.073Z,4.18
2023-06-07T11:15:32.197Z,4.18
2023-06-07T11:18:02.441Z,4.70
2023-06-07T11:20:47.155Z,4.50
2023-06-07T11:23:39.434Z,4.32
2023-06-07T11:26:14.336Z,4.25
2023-06-07T11:28:44.016Z,4.20
2023-06-07T11:31:13.814Z,4.35
2023-06-07T11:33:43.813Z,4.40
2023-06-07T11:36:14.285Z,4.30
2023-06-07T11:38:44.631Z,4.60
2023-06-07T11:41:16.641Z,3.90
2023-06-07T11:43:46.003Z,4.10
2023-06-07T11:46:17.042Z,4.57
2023-06-07T11:48:47.026Z,4.20
2023-06-07T11:51:16.632Z,4.32
2023-06-07T11:53:47.753Z,4.65
2023-06-07T11:56:19.750Z,4.15
2023-06-07T11:58:49.130Z,4.43
2023-06-07T12:01:18.486Z,4.30
2023-06-07T12:03:47.998Z,4.53
2023-06-07T12:06:17.451Z,5.05
2023-06-07T12:08:47.002Z,4.53
2023-06-07T12:11:18.973Z,4.70
2023-06-07T12:13:48.307Z,4.43
2023-06-07T12:16:17.744Z,4.30
2023-06-07T12:18:47.266Z,4.28
2023-06-07T12:21:19.423Z,4.40
2023-06-07T12:23:49.294Z,4.30
2023-06-07T12:26:22.485Z,4.22
2023-06-07T12:28:54.765Z,4.40
2023-06-07T12:31:24.574Z,4.45
2023-06-07T12:33:57.437Z,4.47
2023-06-07T12:36:26.880Z,4.93
2023-06-07T12:38:56.233Z,4.47
2023-06-07T12:41:29.454Z,4.85
2023-06-07T12:43:58.848Z,4.57
2023-06-07T12:46:28.251Z,4.30
2023-06-07T12:48:57.709Z,4.60
2023-06-07T12:51:27.123Z,4.72
2023-06-07T12:53:56.519Z,4.15
2023-06-07T12:56:28.863Z,3.97
2023-06-07T12:59:00.132Z,3.45
2023-06-07T13:01:31.213Z,3.55
2023-06-07T13:04:01.222Z,3.60
2023-06-07T13:06:30.691Z,3.60
2023-06-07T13:09:08.754Z,4.10
2023-06-07T13:11:42.273Z,3.95
2023-06-07T13:14:11.892Z,3.97
2023-06-07T13:16:41.378Z,4.20
2023-06-07T13:19:10.864Z,4.40
2023-06-07T13:21:40.636Z,4.43
2023-06-07T13:24:10.201Z,4.30
2023-06-07T13:26:42.196Z,4.30
2023-06-07T13:29:11.517Z,4.53
2023-06-07T13:31:40.893Z,4.13
2023-06-07T13:34:10.457Z,4.10
2023-06-07T13:36:41.884Z,4.43
2023-06-07T13:39:11.625Z,4.35
2023-06-07T13:41:44.804Z,4.68
2023-06-07T13:44:18.018Z,4.55
2023-06-07T13:46:51.276Z,4.38
2023-06-07T13:49:20.985Z,4.45
2023-06-07T13:51:50.554Z,4.13
2023-06-07T13:54:19.923Z,3.60
2023-06-07T13:56:51.840Z,3.78
2023-06-07T13:59:24.312Z,3.42
2023-06-07T14:01:54.655Z,4.13
2023-06-07T14:04:25.758Z,4.40
2023-06-07T14:06:55.214Z,3.80
2023-06-07T14:09:24.567Z,3.70
2023-06-07T14:11:56.721Z,3.90
2023-06-07T14:14:26.086Z,4.00
2023-06-07T14:16:56.107Z,4.03
2023-06-07T14:19:25.564Z,3.70
2023-06-07T14:21:54.946Z,3.80
2023-06-07T14:24:24.328Z,3.78
2023-06-07T14:26:56.220Z,3.65
2023-06-07T14:29:25.729Z,3.70
2023-06-07T14:31:55.108Z,4.38
2023-06-07T14:34:25.027Z,4.32
2023-06-07T14:36:54.401Z,4.23
2023-06-07T14:39:23.816Z,4.53
2023-06-07T14:41:53.132Z,4.32
2023-06-07T14:44:25.446Z,4.05
2023-06-07T14:46:54.801Z,4.35
2023-06-07T14:49:24.101Z,4.95
2023-06-07T14:51:53.452Z,5.35
2023-06-07T14:54:22.806Z,4.28
2023-06-07T14:56:52.137Z,5.45
2023-06-07T14:59:21.776Z,4.60
2023-06-07T15:01:53.757Z,4.70
2023-06-07T15:04:23.146Z,4.32
2023-06-07T15:06:52.486Z,4.07
2023-06-07T15:09:22.716Z,4.07
2023-06-07T15:11:52.086Z,3.45
2023-06-07T15:14:21.400Z,3.90
2023-06-07T15:16:53.333Z,4.18
2023-06-07T15:19:22.789Z,3.88
2023-06-07T15:21:52.148Z,3.90
2023-06-07T15:24:21.607Z,3.97
2023-06-07T15:26:51.270Z,3.42
2023-06-07T15:29:20.599Z,3.58
2023-06-07T15:31:50.043Z,4.00
2023-06-07T15:34:24.030Z,3.90
2023-06-07T15:36:53.338Z,3.75
2023-06-07T15:39:22.733Z,3.83
2023-06-07T15:41:52.670Z,4.18
2023-06-07T15:44:22.070Z,4.28
2023-06-07T15:46:51.694Z,4.10
2023-06-07T15:49:23.668Z,4.60
2023-06-07T15:51:53.025Z,4.10
2023-06-07T15:54:22.493Z,3.85
2023-06-07T15:56:51.868Z,4.05
2023-06-07T15:59:21.810Z,4.30
2023-06-07T16:01:51.158Z,4.22
2023-06-07T16:04:23.169Z,4.20
2023-06-07T16:06:52.517Z,3.88
2023-06-07T16:09:21.841Z,4.45
2023-06-07T16:11:51.181Z,4.97
2023-06-07T16:14:20.694Z,4.78
2023-06-07T16:16:50.080Z,5.10
2023-06-07T16:19:19.508Z,5.20
2023-06-07T16:21:51.659Z,4.93
2023-06-07T16:24:21.096Z,5.28
2023-06-07T16:26:50.424Z,5.50
2023-06-07T16:29:19.721Z,5.10
2023-06-07T16:31:49.056Z,5.00
2023-06-07T16:34:18.393Z,5.20
2023-06-07T16:36:47.799Z,5.20
2023-06-07T16:39:20.108Z,5.38
2023-06-07T16:41:49.503Z,4.65
2023-06-07T16:44:19.396Z,5.40
2023-06-07T16:46:48.825Z,5.07
2023-06-07T16:49:18.343Z,5.53
2023-06-07T16:51:47.694Z,5.60
2023-06-07T16:54:17.186Z,5.03
2023-06-07T16:56:49.200Z,5.07
2023-06-07T16:59:18.577Z,5.05
2023-06-07T17:01:48.013Z,5.35
2023-06-07T17:04:18.483Z,5.50
2023-06-07T17:06:47.848Z,4.97
2023-06-07T17:09:17.661Z,5.40
2023-06-07T17:11:49.619Z,5.65
2023-06-07T17:14:20.711Z,5.68
2023-06-07T17:16:50.149Z,5.50
2023-06-07T17:19:19.997Z,5.55
2023-06-07T17:21:49.332Z,5.68
2023-06-07T17:24:21.097Z,5.75
2023-06-07T17:26:53.087Z,5.47
2023-06-07T17:29:30.130Z,5.90
2023-06-07T17:31:59.835Z,5.47
2023-06-07T17:34:29.184Z,7.00
2023-06-07T17:36:58.627Z,6.78
2023-06-07T17:39:28.260Z,6.05
2023-06-07T17:42:00.660Z,5.65
2023-06-07T17:44:29.996Z,5.22
2023-06-07T17:46:59.337Z,5.55
2023-06-07T17:49:28.658Z,5.75
2023-06-07T17:52:00.772Z,5.40
2023-06-07T17:54:35.835Z,5.22
2023-06-07T17:57:08.511Z,7.32
2023-06-07T17:59:37.846Z,6.03
2023-06-07T18:02:08.059Z,6.20
2023-06-07T18:04:37.405Z,5.72
2023-06-07T18:07:07.179Z,6.95
2023-06-07T18:09:36.918Z,5.53
2023-06-07T18:12:12.128Z,5.10
2023-06-07T18:14:43.170Z,5.07
2023-06-07T18:17:12.546Z,5.50
2023-06-07T18:19:42.048Z,5.32
2023-06-07T18:22:11.386Z,4.88
2023-06-07T18:24:41.034Z,5.20
2023-06-07T18:27:13.152Z,5.20
2023-06-07T18:29:42.541Z,5.25
2023-06-07T18:32:12.032Z,4.78
2023-06-07T18:34:41.385Z,5.32
2023-06-07T18:37:11.026Z,5.32
2023-06-07T18:39:40.543Z,5.28
2023-06-07T18:42:10.402Z,5.45
2023-06-07T18:44:42.403Z,5.32
2023-06-07T18:47:11.859Z,5.30
2023-06-07T18:49:41.214Z,5.32
2023-06-07T18:52:12.116Z,5.07
2023-06-07T18:54:41.452Z,5.00
2023-06-07T18:57:10.853Z,5.30
2023-06-07T18:59:45.949Z,5.03
2023-06-07T19:02:15.420Z,5.00
2023-06-07T19:04:45.158Z,5.00
2023-06-07T19:07:14.608Z,4.78
2023-06-07T19:09:45.162Z,4.88
2023-06-07T19:12:14.587Z,4.50
2023-06-07T19:14:46.531Z,5.00
2023-06-07T19:17:15.984Z,4.82
2023-06-07T19:19:45.494Z,4.80
2023-06-07T19:22:14.840Z,4.80
2023-06-07T19:24:46.951Z,4.93
2023-06-07T19:27:16.942Z,4.93
2023-06-07T19:29:48.848Z,5.00
2023-06-07T19:32:18.223Z,4.88
2023-06-07T19:34:47.904Z,4.70
2023-06-07T19:37:17.323Z,4.68
2023-06-07T19:39:46.668Z,4.97
2023-06-07T19:42:18.222Z,4.82
2023-06-07T19:44:50.999Z,5.28
2023-06-07T19:47:20.337Z,5.03
2023-06-07T19:49:50.401Z,5.10
2023-06-07T19:52:19.729Z,5.32
2023-06-07T19:54:49.485Z,5.65
2023-06-07T19:57:19.008Z,5.50
2023-06-07T19:59:50.963Z,5.72
2023-06-07T20:02:20.651Z,5.90
2023-06-07T20:04:50.069Z,5.15
2023-06-07T20:07:19.421Z,5.85
2023-06-07T20:09:48.813Z,6.20
2023-06-07T20:12:18.142Z,6.00
2023-06-07T20:14:47.469Z,6.00
2023-06-07T20:17:21.164Z,6.40
2023-06-07T20:19:50.649Z,6.40
2023-06-07T20:22:19.983Z,6.25
2023-06-07T20:24:49.284Z,5.95
2023-06-07T20:27:18.858Z,6.03
2023-06-07T20:29:48.210Z,6.25
2023-06-07T20:32:22.139Z,6.35
2023-06-07T20:34:51.512Z,6.47
2023-06-07T20:37:20.831Z,6.32
2023-06-07T20:39:50.161Z,6.47
2023-06-07T20:42:19.525Z,6.55
2023-06-07T20:44:53.251Z,6.38
2023-06-07T20:47:25.870Z,6.97
2023-06-07T20:49:55.245Z,6.85
2023-06-07T20:52:24.545Z,7.00
2023-06-07T20:54:53.970Z,6.85
2023-06-07T20:57:23.303Z,6.70
2023-06-07T20:59:54.354Z,6.50
2023-06-07T21:02:26.421Z,6.68
2023-06-07T21:04:56.296Z,6.65
2023-06-07T21:07:25.744Z,6.90
2023-06-07T21:09:55.047Z,6.93
2023-06-07T21:12:24.368Z,6.90
2023-06-07T21:14:54.854Z,6.80
2023-06-07T21:17:28.995Z,6.40
2023-06-07T21:19:58.396Z,6.30
2023-06-07T21:22:28.448Z,6.80
2023-06-07T21:24:57.811Z,6.80
2023-06-07T21:27:27.671Z,6.57
2023-06-07T21:29:56.981Z,6.15
2023-06-07T21:32:29.357Z,6.25
2023-06-07T21:34:58.663Z,6.75
2023-06-07T21:37:28.038Z,6.63
2023-06-07T21:39:57.358Z,6.70
2023-06-07T21:42:28.024Z,6.85
2023-06-07T21:44:59.652Z,6.80
2023-06-07T21:47:31.574Z,6.47
2023-06-07T21:50:01.410Z,5.95
2023-06-07T21:52:30.988Z,6.50
2023-06-07T21:55:01.059Z,6.93
2023-06-07T21:57:30.679Z,6.60
2023-06-07T22:00:00.032Z,6.50
2023-06-07T22:02:34.778Z,7.15
2023-06-07T22:05:04.990Z,6.30
2023-06-07T22:07:34.302Z,6.93
2023-06-07T22:10:03.822Z,6.85
2023-06-07T22:12:33.886Z,6.95
2023-06-07T22:15:05.649Z,6.80
2023-06-07T22:17:38.112Z,6.55
2023-06-07T22:20:08.307Z,6.45
2023-06-07T22:22:37.958Z,6.50
2023-06-07T22:25:07.730Z,7.00
2023-06-07T22:27:37.074Z,6.70
2023-06-07T22:30:07.057Z,6.60
2023-06-07T22:32:40.589Z,6.18
2023-06-07T22:35:10.827Z,6.68
2023-06-07T22:37:41.609Z,6.53
2023-06-07T22:40:11.841Z,6.38
2023-06-07T22:42:41.547Z,6.57
2023-06-07T22:45:11.387Z,6.10
2023-06-07T22:47:44.295Z,6.20
2023-06-07T22:50:13.899Z,6.38
2023-06-07T22:52:45.349Z,6.80
2023-06-07T22:55:15.093Z,6.50
2023-06-07T22:57:44.702Z,6.60
2023-06-07T23:00:14.908Z,5.80
2023-06-07T23:02:48.869Z,6.50
2023-06-07T23:05:18.268Z,5.90
2023-06-07T23:07:50.212Z,6.22
2023-06-07T23:10:22.384Z,5.85
2023-06-07T23:12:58.083Z,6.43
2023-06-07T23:15:27.600Z,6.45
2023-06-07T23:17:59.726Z,6.28
2023-06-07T23:20:34.569Z,6.30
2023-06-07T23:23:04.854Z,6.25
2023-06-07T23:25:34.319Z,6.18
2023-06-07T23:28:03.930Z,6.18
2023-06-07T23:30:33.280Z,6.38
2023-06-07T23:33:05.260Z,5.90
2023-06-07T23:35:34.624Z,5.80
2023-06-07T23:38:04.001Z,5.90
2023-06-07T23:40:33.370Z,6.40
2023-06-07T23:43:03.540Z,6.00
2023-06-07T23:45:32.869Z,5.95
2023-06-07T23:48:04.650Z,5.70
2023-06-07T23:50:38.908Z,5.93
2023-06-07T23:53:08.250Z,6.07
2023-06-07T23:55:37.571Z,6.03
2023-06-07T23:58:07.639Z,5.80
